Decoded Metar for KEVM (EVELETH MUNI in MN, USA) (IATA:EVM) | Meteo·Mobile Aviation Weather
aviador You're here:

KEVM Decoded Metar

EVELETH MUNI in MN, USA
Report Time2019-03-21 16:16:00
UTC Time2019-03-21 16:30:47
Flight Rules vfr VFR
Wind290° at 14 Gusting to 23 kt
W.Decomp.*RWY 27: 13.2 kt HW 4.8 kt RCW
RWY 32: 12.1 kt HW 7 kt LCW
W.Rank290° ranks 2
Current wind is above 290° avg. (8.5)
Visibility9999 m
Phenomena:N/A
Clouds:N/A
Expected CloudBase > 2,000 ft AGL from Temp-Dew spread
CeilingNone
Temp04°C (ISA -8)
Dew Point-1°C (70% RH)
AAT-3.2°C
QNH1013 hPa
Density Alt466 ft
Elevation1,381 ft
Report Wrong Elevation
Raw Report
KEVM 211616Z AUTO 29014G23KT 10SM CLR 04/M01 A2991 RMK AO2
T00411015=

Extra information for KEVM:More info

Metar Taf Metar & Taf Last 4 Metars F.Rules Stats Wind Profile Meteogram Temp Stats Airport Information Weather charts Add Link Nearby VenuesMetar ALERT Operation Metar Decoded Social comments

AIRNAV info for KEVM